createdAt,value
2018-06-17T00:01:23.694Z,65.00
2018-06-17T00:04:27.992Z,65.00
2018-06-17T00:07:32.296Z,64.90
2018-06-17T00:10:36.719Z,64.90
2018-06-17T00:13:41.094Z,64.80
2018-06-17T00:16:45.438Z,64.90
2018-06-17T00:19:49.478Z,64.90
2018-06-17T00:22:53.736Z,65.00
2018-06-17T00:25:58.332Z,65.20
2018-06-17T00:29:02.442Z,65.30
2018-06-17T00:32:06.749Z,65.40
2018-06-17T00:35:11.161Z,65.50
2018-06-17T00:38:15.595Z,65.30
2018-06-17T00:41:19.906Z,65.20
2018-06-17T00:44:24.971Z,65.20
2018-06-17T00:47:29.407Z,65.20
2018-06-17T00:50:33.693Z,65.30
2018-06-17T00:53:38.073Z,65.50
2018-06-17T00:56:42.408Z,65.40
2018-06-17T00:59:46.732Z,65.50
2018-06-17T01:02:51.086Z,65.60
2018-06-17T01:05:55.378Z,65.80
2018-06-17T01:08:59.749Z,65.90
2018-06-17T01:12:04.002Z,66.00
2018-06-17T01:15:08.393Z,66.00
2018-06-17T01:18:12.650Z,66.00
2018-06-17T01:21:17.266Z,66.00
2018-06-17T01:24:21.718Z,65.90
2018-06-17T01:27:25.958Z,66.00
2018-06-17T01:30:30.344Z,66.00
2018-06-17T01:33:34.795Z,66.00
2018-06-17T01:36:39.061Z,66.10
2018-06-17T01:39:43.414Z,66.00
2018-06-17T01:42:47.834Z,65.90
2018-06-17T01:45:52.237Z,66.00
2018-06-17T01:48:56.591Z,66.30
2018-06-17T01:52:00.953Z,66.40
2018-06-17T01:55:05.968Z,66.30
2018-06-17T01:58:10.310Z,66.30
2018-06-17T02:01:14.403Z,66.20
2018-06-17T02:04:23.822Z,67.00
2018-06-17T02:07:33.222Z,66.20
2018-06-17T02:10:42.680Z,66.00
2018-06-17T02:13:47.039Z,66.10
2018-06-17T02:16:51.399Z,66.00
2018-06-17T02:19:56.042Z,66.10
2018-06-17T02:23:00.203Z,65.80
2018-06-17T02:26:04.495Z,65.70
2018-06-17T02:29:08.789Z,65.80
2018-06-17T02:32:13.095Z,65.70
2018-06-17T02:35:17.543Z,65.70
2018-06-17T02:38:22.282Z,65.90
2018-06-17T02:41:26.335Z,66.10
2018-06-17T02:44:30.525Z,66.40
2018-06-17T02:48:43.227Z,66.50
2018-06-17T02:51:52.739Z,66.70
2018-06-17T02:54:56.909Z,66.90
2018-06-17T02:58:01.174Z,67.00
2018-06-17T03:01:05.471Z,67.00
2018-06-17T03:04:09.817Z,67.30
2018-06-17T03:07:14.115Z,67.10
2018-06-17T03:10:18.510Z,67.00
2018-06-17T03:13:22.787Z,67.00
2018-06-17T03:16:27.241Z,67.10
2018-06-17T03:19:31.555Z,67.00
2018-06-17T03:22:35.871Z,66.90
2018-06-17T03:25:45.327Z,66.80
2018-06-17T03:30:57.236Z,66.70
2018-06-17T03:34:01.435Z,66.90
2018-06-17T03:37:05.727Z,66.80
2018-06-17T03:40:10.078Z,66.80
2018-06-17T03:43:21.576Z,66.80
2018-06-17T03:46:25.761Z,66.80
2018-06-17T03:49:29.890Z,67.70
2018-06-17T03:52:34.166Z,67.10
2018-06-17T03:55:38.484Z,67.10
2018-06-17T03:58:42.672Z,67.00
2018-06-17T04:01:46.737Z,66.80
2018-06-17T04:04:56.016Z,66.60
2018-06-17T04:08:01.123Z,66.50
2018-06-17T04:11:05.443Z,66.40
2018-06-17T04:14:09.749Z,66.30
2018-06-17T04:17:15.195Z,66.10
2018-06-17T04:20:19.589Z,65.90
2018-06-17T04:23:23.940Z,65.50
2018-06-17T04:26:28.246Z,65.10
2018-06-17T04:29:32.539Z,64.70
2018-06-17T04:32:36.874Z,64.60
2018-06-17T04:35:41.201Z,64.30
2018-06-17T04:38:45.594Z,64.10
2018-06-17T04:41:50.050Z,63.80
2018-06-17T04:44:54.361Z,63.40
2018-06-17T04:47:58.722Z,63.80
2018-06-17T04:51:03.027Z,63.00
2018-06-17T04:54:07.351Z,62.90
2018-06-17T04:57:11.523Z,62.60
2018-06-17T05:00:15.880Z,62.70
2018-06-17T05:03:20.184Z,62.50
2018-06-17T05:06:24.615Z,62.50
2018-06-17T05:09:28.966Z,62.30
2018-06-17T05:12:33.489Z,62.10
2018-06-17T05:15:37.889Z,62.20
2018-06-17T05:18:42.080Z,62.20
2018-06-17T05:21:46.242Z,62.50
2018-06-17T05:24:50.409Z,61.60
2018-06-17T05:27:54.730Z,61.30
2018-06-17T05:30:58.855Z,61.10
2018-06-17T05:34:03.204Z,61.20
2018-06-17T05:37:07.507Z,60.70
2018-06-17T05:40:11.908Z,60.60
2018-06-17T05:43:16.568Z,60.10
2018-06-17T05:46:20.918Z,59.90
2018-06-17T05:49:25.248Z,59.90
2018-06-17T05:52:29.429Z,59.70
2018-06-17T05:55:33.623Z,59.00
2018-06-17T05:58:38.011Z,58.80
2018-06-17T06:01:42.894Z,58.80
2018-06-17T06:04:47.183Z,59.70
2018-06-17T06:07:51.407Z,59.60
2018-06-17T06:10:55.666Z,59.20
2018-06-17T06:14:00.022Z,58.40
2018-06-17T06:17:04.351Z,58.60
2018-06-17T06:20:09.936Z,59.20
2018-06-17T06:23:14.174Z,59.30
2018-06-17T06:26:18.538Z,59.20
2018-06-17T06:29:22.752Z,58.90
2018-06-17T06:32:27.128Z,58.50
2018-06-17T06:35:31.287Z,58.10
2018-06-17T06:38:35.714Z,56.40
2018-06-17T06:41:40.267Z,55.40
2018-06-17T06:44:44.430Z,54.30
2018-06-17T06:47:48.748Z,53.50
2018-06-17T06:50:53.698Z,53.40
2018-06-17T06:53:57.933Z,53.10
2018-06-17T06:57:02.416Z,52.30
2018-06-17T07:00:06.702Z,51.50
2018-06-17T07:03:21.758Z,51.10
2018-06-17T07:06:36.990Z,49.30
2018-06-17T07:09:57.072Z,49.00
2018-06-17T07:13:01.270Z,49.20
2018-06-17T07:16:16.323Z,49.10
2018-06-17T07:19:20.647Z,47.40
2018-06-17T07:22:24.881Z,43.60
2018-06-17T07:27:42.852Z,44.20
2018-06-17T07:30:47.162Z,44.20
2018-06-17T07:33:51.494Z,40.70
2018-06-17T07:36:55.822Z,40.80
2018-06-17T07:40:19.609Z,40.70
2018-06-17T07:43:23.931Z,40.30
2018-06-17T07:46:28.206Z,38.80
2018-06-17T07:49:48.931Z,38.70
2018-06-17T07:53:03.907Z,39.20
2018-06-17T07:56:08.170Z,39.30
2018-06-17T07:59:12.448Z,37.90
2018-06-17T08:02:16.959Z,36.70
2018-06-17T08:05:21.467Z,35.90
2018-06-17T08:08:26.019Z,36.10
2018-06-17T08:11:30.437Z,35.70
2018-06-17T08:14:34.704Z,34.80
2018-06-17T08:17:38.959Z,35.60
2018-06-17T08:20:43.334Z,35.90
2018-06-17T08:23:47.735Z,36.70
2018-06-17T08:26:52.193Z,36.90
2018-06-17T08:29:56.590Z,36.40
2018-06-17T08:33:00.934Z,35.50
2018-06-17T08:36:05.107Z,34.50
2018-06-17T08:39:11.978Z,34.30
2018-06-17T08:42:16.176Z,34.50
2018-06-17T08:45:20.697Z,34.20
2018-06-17T08:48:24.848Z,34.20
2018-06-17T08:51:29.348Z,34.10
2018-06-17T08:54:33.743Z,33.10
2018-06-17T08:57:37.994Z,32.80
2018-06-17T09:00:42.279Z,32.70
2018-06-17T09:03:46.436Z,31.90
2018-06-17T09:06:50.695Z,32.00
2018-06-17T09:09:55.040Z,31.90
2018-06-17T09:12:59.239Z,31.10
2018-06-17T09:16:03.547Z,30.50
2018-06-17T09:19:07.905Z,31.10
2018-06-17T09:22:12.313Z,30.50
2018-06-17T09:25:16.689Z,30.20
2018-06-17T09:28:20.759Z,30.40
2018-06-17T09:31:24.922Z,30.00
2018-06-17T09:34:29.015Z,30.10
2018-06-17T09:37:33.146Z,29.60
2018-06-17T09:40:37.355Z,30.00
2018-06-17T09:43:41.782Z,29.20
2018-06-17T09:46:47.530Z,29.90
2018-06-17T09:49:51.937Z,29.70
2018-06-17T09:52:56.223Z,29.90
2018-06-17T09:56:00.709Z,29.60
2018-06-17T09:59:05.047Z,29.60
2018-06-17T10:02:09.599Z,29.80
2018-06-17T10:05:13.932Z,29.70
2018-06-17T10:08:18.938Z,30.40
2018-06-17T10:11:23.327Z,30.20
2018-06-17T10:14:28.045Z,30.20
2018-06-17T10:17:32.247Z,29.70
2018-06-17T10:20:36.867Z,29.40
2018-06-17T10:23:44.055Z,29.50
2018-06-17T10:26:49.013Z,28.90
2018-06-17T10:29:53.286Z,29.10
2018-06-17T10:32:57.921Z,29.50
2018-06-17T10:36:02.810Z,29.40
2018-06-17T10:39:08.589Z,29.60
2018-06-17T10:42:13.153Z,29.60
2018-06-17T10:45:17.797Z,29.10
2018-06-17T10:48:22.225Z,28.60
2018-06-17T10:51:26.636Z,28.20
2018-06-17T10:54:31.270Z,29.10
2018-06-17T10:57:35.558Z,28.50
2018-06-17T11:00:40.033Z,29.30
2018-06-17T11:03:44.139Z,28.70
2018-06-17T11:09:52.035Z,28.30
2018-06-17T11:12:56.247Z,29.40
2018-06-17T11:16:00.520Z,29.90
2018-06-17T11:19:04.991Z,30.70
2018-06-17T11:22:09.283Z,31.10
2018-06-17T11:25:13.622Z,32.10
2018-06-17T11:28:17.769Z,33.00
2018-06-17T11:31:21.863Z,33.30
2018-06-17T11:34:26.282Z,33.40
2018-06-17T11:37:31.146Z,33.90
2018-06-17T11:40:35.416Z,32.40
2018-06-17T11:43:39.734Z,33.70
2018-06-17T11:46:43.989Z,33.30
2018-06-17T11:49:48.428Z,33.30
2018-06-17T11:52:52.851Z,33.30
2018-06-17T11:55:57.177Z,32.30
2018-06-17T11:59:01.572Z,32.20
2018-06-17T12:02:06.699Z,32.10
2018-06-17T12:05:11.033Z,31.80
2018-06-17T12:08:15.346Z,31.40
2018-06-17T12:11:19.753Z,32.00
2018-06-17T12:14:24.209Z,32.10
2018-06-17T12:17:28.481Z,31.10
2018-06-17T12:23:36.599Z,30.90
2018-06-17T12:26:40.815Z,31.20
2018-06-17T12:29:45.544Z,32.10
2018-06-17T12:32:50.655Z,32.60
2018-06-17T12:35:55.066Z,33.50
2018-06-17T12:38:59.105Z,33.70
2018-06-17T12:42:03.183Z,34.70
2018-06-17T12:45:07.604Z,35.50
2018-06-17T12:48:11.820Z,35.70
2018-06-17T12:51:16.199Z,35.80
2018-06-17T12:54:20.590Z,35.30
2018-06-17T12:57:25.755Z,35.10
2018-06-17T13:00:29.850Z,35.40
2018-06-17T13:03:34.044Z,35.80
2018-06-17T13:06:38.442Z,36.20
2018-06-17T13:09:42.734Z,34.90
2018-06-17T13:12:47.233Z,34.20
2018-06-17T13:15:51.691Z,34.40
2018-06-17T13:18:56.089Z,34.50
2018-06-17T13:22:00.546Z,34.40
2018-06-17T13:25:04.816Z,32.90
2018-06-17T13:28:09.354Z,34.10
2018-06-17T13:31:13.712Z,34.60
2018-06-17T13:34:17.905Z,34.90
2018-06-17T13:37:22.107Z,35.70
2018-06-17T13:40:26.476Z,36.50
2018-06-17T13:43:30.745Z,36.60
2018-06-17T13:46:35.118Z,37.30
2018-06-17T13:49:39.588Z,38.00
2018-06-17T13:52:43.839Z,37.70
2018-06-17T13:55:48.116Z,37.50
2018-06-17T13:58:52.591Z,37.40
2018-06-17T14:01:57.081Z,37.20
2018-06-17T14:05:01.397Z,38.30
2018-06-17T14:08:05.685Z,38.70
2018-06-17T14:11:10.062Z,38.60
2018-06-17T14:14:14.516Z,38.30
2018-06-17T14:17:18.755Z,38.20
2018-06-17T14:20:23.326Z,37.80
2018-06-17T14:23:27.688Z,37.80
2018-06-17T14:26:31.891Z,37.90
2018-06-17T14:29:36.409Z,37.80
2018-06-17T14:32:40.766Z,37.10
2018-06-17T14:35:45.040Z,36.90
2018-06-17T14:38:49.336Z,36.70
2018-06-17T14:41:58.905Z,35.90
2018-06-17T14:45:08.415Z,34.90
2018-06-17T14:48:17.921Z,34.00
2018-06-17T14:51:27.256Z,34.10
2018-06-17T14:54:31.526Z,35.90
2018-06-17T14:57:35.955Z,35.10
2018-06-17T15:00:40.278Z,35.00
2018-06-17T15:03:44.760Z,36.00
2018-06-17T15:06:48.932Z,36.40
2018-06-17T15:09:53.826Z,36.70
2018-06-17T15:12:58.054Z,37.40
2018-06-17T15:16:02.397Z,37.50
2018-06-17T15:19:06.707Z,38.00
2018-06-17T15:22:11.145Z,38.80
2018-06-17T15:25:15.522Z,38.80
2018-06-17T15:28:20.029Z,38.50
2018-06-17T15:31:29.371Z,38.90
2018-06-17T15:37:47.679Z,41.80
2018-06-17T15:40:57.196Z,41.30
2018-06-17T15:44:01.862Z,41.00
2018-06-17T15:47:06.114Z,41.00
2018-06-17T15:50:10.698Z,40.60
2018-06-17T15:53:14.898Z,41.50
2018-06-17T15:56:19.366Z,42.10
2018-06-17T15:59:24.233Z,42.40
2018-06-17T16:05:32.567Z,44.30
2018-06-17T16:08:36.897Z,45.50
2018-06-17T16:11:46.285Z,45.80
2018-06-17T16:14:56.599Z,46.40
2018-06-17T16:18:06.034Z,47.40
2018-06-17T16:21:10.662Z,47.70
2018-06-17T16:24:16.727Z,47.50
2018-06-17T16:27:20.926Z,48.30
2018-06-17T16:30:25.248Z,48.50
2018-06-17T16:33:29.686Z,48.80
2018-06-17T16:36:34.160Z,48.40
2018-06-17T16:39:43.140Z,48.70
2018-06-17T16:42:47.431Z,48.70
2018-06-17T16:45:51.703Z,48.70
2018-06-17T16:48:56.201Z,48.70
2018-06-17T16:52:05.715Z,48.20
2018-06-17T16:55:14.790Z,48.10
2018-06-17T16:58:24.285Z,48.60
2018-06-17T17:01:28.420Z,49.00
2018-06-17T17:04:32.747Z,49.00
2018-06-17T17:07:37.121Z,48.50
2018-06-17T17:10:41.538Z,48.30
2018-06-17T17:13:45.943Z,48.30
2018-06-17T17:16:50.231Z,48.30
2018-06-17T17:19:54.584Z,48.50
2018-06-17T17:22:58.785Z,49.40
2018-06-17T17:26:03.067Z,49.20
2018-06-17T17:29:07.637Z,49.00
2018-06-17T17:32:17.416Z,49.40
2018-06-17T17:35:26.933Z,49.80
2018-06-17T17:38:36.562Z,50.20
2018-06-17T17:41:41.069Z,49.20
2018-06-17T17:44:50.375Z,50.20
2018-06-17T17:47:54.615Z,51.10
2018-06-17T17:50:59.076Z,51.70
2018-06-17T17:54:03.947Z,51.50
2018-06-17T17:57:08.714Z,51.50
2018-06-17T18:00:12.974Z,51.60
2018-06-17T18:03:17.448Z,51.80
2018-06-17T18:06:21.919Z,52.20
2018-06-17T18:09:26.139Z,53.10
2018-06-17T18:12:30.551Z,53.40
2018-06-17T18:15:34.823Z,53.30
2018-06-17T18:18:39.288Z,53.40
2018-06-17T18:21:43.827Z,53.60
2018-06-17T18:24:53.453Z,54.30
2018-06-17T18:28:03.069Z,55.10
2018-06-17T18:31:07.728Z,55.10
2018-06-17T18:34:16.955Z,54.80
2018-06-17T18:37:21.285Z,54.90
2018-06-17T18:40:25.695Z,55.20
2018-06-17T18:43:29.980Z,56.10
2018-06-17T18:46:34.199Z,56.50
2018-06-17T18:49:38.695Z,57.10
2018-06-17T18:52:43.211Z,57.10
2018-06-17T18:55:47.782Z,56.40
2018-06-17T18:58:52.195Z,55.80
2018-06-17T19:01:56.584Z,56.70
2018-06-17T19:05:01.485Z,56.80
2018-06-17T19:08:08.405Z,56.80
2018-06-17T19:11:17.832Z,56.20
2018-06-17T19:14:27.164Z,55.80
2018-06-17T19:18:10.632Z,55.40
2018-06-17T19:21:15.001Z,55.50
2018-06-17T19:24:19.387Z,55.70
2018-06-17T19:27:23.845Z,56.00
2018-06-17T19:30:28.121Z,56.00
2018-06-17T19:33:32.646Z,56.00
2018-06-17T19:36:37.025Z,56.20
2018-06-17T19:39:41.370Z,56.40
2018-06-17T19:42:45.953Z,56.10
2018-06-17T19:45:50.338Z,55.90
2018-06-17T19:48:54.778Z,55.60
2018-06-17T19:52:04.346Z,55.30
2018-06-17T19:55:13.646Z,55.10
2018-06-17T19:58:23.298Z,54.90
2018-06-17T20:01:27.490Z,54.90
2018-06-17T20:04:31.785Z,54.80
2018-06-17T20:07:36.615Z,54.80
2018-06-17T20:10:40.866Z,54.90
2018-06-17T20:13:45.179Z,54.90
2018-06-17T20:16:49.642Z,55.30
2018-06-17T20:19:54.143Z,55.30
2018-06-17T20:22:58.878Z,56.30
2018-06-17T20:26:04.095Z,56.60
2018-06-17T20:29:08.581Z,56.60
2018-06-17T20:32:18.134Z,56.10
2018-06-17T20:35:27.565Z,56.40
2018-06-17T20:38:38.230Z,56.30
2018-06-17T20:41:47.655Z,56.10
2018-06-17T20:44:52.081Z,55.90
2018-06-17T20:47:56.615Z,56.30
2018-06-17T20:51:01.011Z,56.10
2018-06-17T20:54:05.416Z,56.30
2018-06-17T20:57:09.660Z,56.60
2018-06-17T21:00:14.023Z,56.50
2018-06-17T21:03:18.255Z,55.90
2018-06-17T21:06:22.744Z,55.80
2018-06-17T21:09:26.838Z,55.80
2018-06-17T21:12:31.030Z,56.10
2018-06-17T21:15:35.488Z,56.20
2018-06-17T21:18:45.194Z,56.40
2018-06-17T21:21:54.845Z,57.30
2018-06-17T21:25:04.738Z,56.60
2018-06-17T21:28:08.710Z,56.20
2018-06-17T21:31:12.594Z,56.20
2018-06-17T21:34:16.585Z,56.10
2018-06-17T21:37:20.509Z,56.30
2018-06-17T21:40:24.649Z,56.40
2018-06-17T21:43:29.176Z,56.10
2018-06-17T21:46:33.504Z,56.20
2018-06-17T21:49:37.442Z,56.30
2018-06-17T21:52:41.922Z,56.40
2018-06-17T21:58:49.914Z,56.30
2018-06-17T22:01:53.933Z,56.40
2018-06-17T22:04:57.882Z,56.70
2018-06-17T22:08:06.945Z,57.10
2018-06-17T22:11:15.807Z,57.50
2018-06-17T22:14:24.925Z,57.50
2018-06-17T22:17:34.021Z,57.60
2018-06-17T22:20:37.921Z,57.80
2018-06-17T22:23:42.547Z,58.20
2018-06-17T22:26:46.605Z,58.40
2018-06-17T22:29:50.926Z,58.30
2018-06-17T22:32:54.846Z,58.50
2018-06-17T22:35:58.911Z,58.60
2018-06-17T22:39:02.976Z,58.50
2018-06-17T22:42:07.294Z,58.50
2018-06-17T22:45:11.657Z,58.30
2018-06-17T22:48:15.974Z,58.40
2018-06-17T22:51:20.181Z,58.00
2018-06-17T22:54:35.281Z,57.50
2018-06-17T22:57:44.684Z,56.80
2018-06-17T23:00:54.044Z,56.80
2018-06-17T23:04:03.039Z,56.90
2018-06-17T23:07:12.630Z,58.10
2018-06-17T23:10:16.593Z,57.60
2018-06-17T23:13:20.472Z,57.50
2018-06-17T23:19:57.029Z,57.70
2018-06-17T23:23:01.322Z,57.00
2018-06-17T23:26:07.917Z,56.90
2018-06-17T23:29:12.171Z,57.00
2018-06-17T23:32:16.936Z,56.80
2018-06-17T23:35:21.253Z,56.60
2018-06-17T23:38:25.539Z,56.70
2018-06-17T23:41:29.608Z,56.90
2018-06-17T23:48:16.954Z,57.10
2018-06-17T23:51:26.554Z,56.90
2018-06-17T23:54:35.846Z,57.00
2018-06-17T23:57:40.306Z,56.30
